Time;durP1;ratioP1;P1;durP2;ratioP2;P2;SDS_P1;SDS_P2;PMS_P1;PMS_P2;Temp;Humidity;BMP_temperature;BMP_pressure;BME280_temperature;BME280_humidity;BME280_pressure;Samples;Min_cycle;Max_cycle;Signal;HPM_P1;HPM_P2
2022/03/07 00:00:47;;;;;;;12.13;8.38;;;2.80;63.50;;;;;;4966203;29;20055;-82
2022/03/07 04:50:16;;;;;;;11.98;8.25;;;1.00;71.60;;;;;;5188127;23;20034;-82
2022/03/07 04:52:44;;;;;;;11.52;7.75;;;0.90;71.90;;;;;;5016441;28;20041;-81
2022/03/07 04:55:12;;;;;;;10.98;7.35;;;0.90;72.20;;;;;;5016524;28;20514;-81
2022/03/07 04:57:40;;;;;;;12.75;8.27;;;0.90;72.50;;;;;;5015464;28;20070;-81
2022/03/07 05:00:17;;;;;;;12.18;7.97;;;0.90;72.70;;;;;;5012639;28;20077;-81
2022/03/07 05:02:45;;;;;;;12.82;7.93;;;0.90;72.90;;;;;;5011656;28;20073;-81
2022/03/07 05:05:12;;;;;;;14.80;8.85;;;0.90;73.50;;;;;;5010694;28;20106;-82
2022/03/07 05:07:40;;;;;;;11.90;8.20;;;0.90;73.00;;;;;;5013707;28;20053;-81
2022/03/07 05:10:11;;;;;;;11.38;7.85;;;0.90;73.20;;;;;;5018718;28;20050;-81
2022/03/07 05:12:39;;;;;;;12.57;8.27;;;1.00;73.30;;;;;;5018337;28;20077;-83
2022/03/07 05:15:10;;;;;;;15.02;8.70;;;0.90;73.30;;;;;;4997554;28;20081;-81
2022/03/07 05:17:44;;;;;;;13.07;8.35;;;0.90;73.40;;;;;;4990883;28;20050;-80
2022/03/07 05:20:12;;;;;;;12.63;7.93;;;0.90;73.70;;;;;;5011466;28;20110;-82
2022/03/07 05:22:40;;;;;;;12.73;8.35;;;0.90;74.00;;;;;;5014391;28;20111;-82
2022/03/07 05:25:09;;;;;;;13.82;8.65;;;0.90;74.20;;;;;;5277784;23;20122;-83
2022/03/07 05:27:37;;;;;;;13.43;8.70;;;0.90;74.30;;;;;;5001025;28;20058;-82
2022/03/07 05:30:06;;;;;;;15.18;8.90;;;0.90;74.40;;;;;;5028150;28;20034;-83
2022/03/07 05:32:33;;;;;;;13.55;8.43;;;0.90;74.60;;;;;;4999757;28;20039;-83
2022/03/07 05:35:01;;;;;;;13.80;8.85;;;0.90;74.60;;;;;;4999866;28;20053;-82
2022/03/07 05:37:28;;;;;;;13.23;8.80;;;0.90;74.90;;;;;;5000503;28;20035;-83
2022/03/07 05:39:57;;;;;;;11.98;8.07;;;0.80;75.00;;;;;;5000410;28;20047;-82
2022/03/07 05:42:24;;;;;;;15.18;9.18;;;0.90;75.70;;;;;;5000408;28;20035;-84
2022/03/07 05:44:52;;;;;;;13.40;8.65;;;0.80;75.10;;;;;;4999684;28;20050;-84
2022/03/07 05:47:19;;;;;;;15.00;9.63;;;0.80;75.20;;;;;;4999563;28;20091;-83
2022/03/07 05:49:47;;;;;;;14.23;9.07;;;0.80;75.30;;;;;;4999732;28;20055;-85
2022/03/07 05:52:15;;;;;;;14.88;9.05;;;0.80;75.40;;;;;;5055862;23;20054;-82
2022/03/07 05:54:42;;;;;;;13.90;9.02;;;0.80;75.80;;;;;;4974686;28;20051;-81
2022/03/07 05:57:10;;;;;;;15.23;9.20;;;0.70;76.00;;;;;;4975010;28;20134;-81
2022/03/07 05:59:38;;;;;;;13.82;9.00;;;0.70;76.30;;;;;;4974691;28;20051;-81
2022/03/07 06:02:05;;;;;;;13.35;8.88;;;0.70;76.60;;;;;;4974456;28;20122;-81
2022/03/07 06:04:32;;;;;;;14.88;9.23;;;0.60;77.00;;;;;;4974358;28;20109;-81
2022/03/07 06:06:59;;;;;;;13.60;9.23;;;0.60;77.30;;;;;;4974523;28;20061;-81
2022/03/07 06:09:26;;;;;;;15.55;9.70;;;0.60;77.60;;;;;;4974338;28;20498;-81
2022/03/07 06:11:53;;;;;;;15.25;9.00;;;0.60;78.00;;;;;;4974506;28;20081;-81
2022/03/07 06:14:22;;;;;;;14.90;8.93;;;0.60;78.30;;;;;;4974525;28;20412;-81
2022/03/07 06:16:49;;;;;;;13.57;9.02;;;0.60;78.60;;;;;;4974267;28;20109;-81
2022/03/07 06:19:17;;;;;;;15.25;9.55;;;0.60;78.90;;;;;;4974588;28;20051;-81
2022/03/07 06:21:44;;;;;;;16.48;9.57;;;0.60;79.30;;;;;;4974373;28;20060;-81
2022/03/07 06:24:11;;;;;;;15.13;8.90;;;0.60;79.50;;;;;;4974293;28;20057;-81
2022/03/07 06:26:38;;;;;;;13.57;9.20;;;0.60;79.80;;;;;;4974418;28;20047;-82
2022/03/07 06:29:05;;;;;;;14.48;9.45;;;0.60;80.00;;;;;;4974075;28;20053;-81
2022/03/07 06:31:34;;;;;;;13.82;9.18;;;0.60;80.20;;;;;;4974493;28;20054;-81
2022/03/07 06:34:02;;;;;;;15.50;9.32;;;0.60;80.40;;;;;;4974367;28;20125;-82
2022/03/07 06:36:29;;;;;;;14.93;9.55;;;0.60;80.60;;;;;;4974352;28;20488;-81
2022/03/07 06:38:56;;;;;;;15.27;9.77;;;0.60;80.70;;;;;;4974105;28;20133;-82
2022/03/07 06:41:23;;;;;;;15.05;9.27;;;0.70;80.90;;;;;;4974112;28;20082;-81
2022/03/07 06:43:50;;;;;;;16.50;9.70;;;0.70;80.80;;;;;;4974090;28;20134;-81
2022/03/07 06:46:17;;;;;;;16.67;10.05;;;0.70;80.90;;;;;;4974132;28;20463;-81
2022/03/07 06:48:46;;;;;;;15.43;9.75;;;0.70;81.00;;;;;;4974025;28;20047;-81
2022/03/07 06:51:13;;;;;;;15.48;9.80;;;0.70;81.10;;;;;;4973923;28;20110;-81
2022/03/07 06:53:40;;;;;;;14.35;9.30;;;0.80;81.20;;;;;;4974182;28;20057;-81
2022/03/07 06:56:07;;;;;;;16.80;10.30;;;0.80;81.20;;;;;;4974194;28;20065;-81
2022/03/07 06:58:34;;;;;;;16.35;9.60;;;0.80;81.10;;;;;;4973977;28;20427;-81
2022/03/07 07:01:01;;;;;;;16.55;10.50;;;0.80;81.30;;;;;;4974055;28;20563;-81
2022/03/07 07:03:28;;;;;;;17.77;10.00;;;0.80;81.20;;;;;;4974004;28;20047;-81
2022/03/07 07:05:57;;;;;;;16.88;10.55;;;0.90;81.30;;;;;;4973809;28;20133;-81
2022/03/07 07:08:24;;;;;;;15.27;9.30;;;0.90;81.40;;;;;;4973926;28;20043;-81
2022/03/07 07:10:51;;;;;;;16.38;10.48;;;0.90;81.30;;;;;;4973648;28;20488;-82
2022/03/07 07:13:18;;;;;;;17.00;11.10;;;0.90;81.20;;;;;;4973608;28;20057;-81
2022/03/07 07:15:45;;;;;;;13.95;9.63;;;0.90;81.40;;;;;;4974264;28;20523;-81
2022/03/07 07:18:13;;;;;;;16.23;11.07;;;0.90;81.60;;;;;;4977598;28;20121;-81
2022/03/07 07:20:40;;;;;;;17.98;10.65;;;0.90;81.60;;;;;;4977574;28;20077;-81
2022/03/07 07:23:08;;;;;;;14.60;9.48;;;0.90;81.70;;;;;;4977377;28;20047;-81
2022/03/07 07:25:35;;;;;;;14.50;9.63;;;0.90;81.80;;;;;;4977499;28;20054;-81
2022/03/07 07:28:02;;;;;;;15.98;10.02;;;1.00;81.90;;;;;;4977393;28;20055;-82
2022/03/07 07:30:29;;;;;;;17.35;10.45;;;1.00;81.90;;;;;;4977308;28;20141;-81
2022/03/07 07:32:56;;;;;;;16.33;10.80;;;1.00;82.10;;;;;;4977207;28;20496;-81
2022/03/07 07:35:24;;;;;;;14.93;9.75;;;0.90;82.10;;;;;;4977238;28;20047;-80
2022/03/07 07:37:51;;;;;;;17.00;10.45;;;1.00;82.40;;;;;;4977139;28;20473;-82
2022/03/07 07:40:19;;;;;;;16.25;9.63;;;1.10;82.40;;;;;;4977152;28;20142;-81
2022/03/07 07:42:47;;;;;;;15.27;9.93;;;1.10;82.40;;;;;;4977115;28;20555;-81
2022/03/07 07:45:14;;;;;;;15.85;10.00;;;1.20;82.20;;;;;;4977151;28;20082;-81
2022/03/07 07:47:44;;;;;;;15.30;9.63;;;1.20;82.10;;;;;;4977131;28;20138;-81
2022/03/07 07:50:12;;;;;;;15.93;9.82;;;1.20;82.10;;;;;;4977097;28;20054;-80
2022/03/07 07:52:39;;;;;;;14.60;9.73;;;1.30;82.20;;;;;;4976806;28;20567;-82
2022/03/07 07:55:07;;;;;;;18.27;9.93;;;1.30;82.30;;;;;;4976921;28;20121;-81
2022/03/07 07:57:36;;;;;;;15.85;9.52;;;1.30;82.20;;;;;;4976965;28;20130;-81
2022/03/07 08:00:04;;;;;;;15.35;9.48;;;1.40;81.80;;;;;;4976938;28;20055;-81
2022/03/07 08:02:31;;;;;;;15.30;9.60;;;1.50;81.40;;;;;;4976853;28;20055;-81
2022/03/07 08:04:58;;;;;;;14.82;9.77;;;1.50;81.30;;;;;;4976438;28;20101;-81
2022/03/07 08:07:27;;;;;;;15.48;9.88;;;1.60;81.30;;;;;;4976732;28;20093;-81
2022/03/07 08:09:54;;;;;;;15.43;9.52;;;1.60;81.20;;;;;;4976591;28;20604;-81
2022/03/07 08:12:21;;;;;;;14.02;9.73;;;1.60;81.20;;;;;;4976727;28;20484;-81
2022/03/07 08:14:50;;;;;;;15.43;9.93;;;1.60;81.00;;;;;;4977095;28;20081;-81
2022/03/07 08:17:17;;;;;;;16.95;9.65;;;1.60;80.70;;;;;;4976550;28;20069;-81
2022/03/07 08:19:44;;;;;;;14.25;9.50;;;1.60;80.50;;;;;;4976561;28;20125;-82
2022/03/07 08:22:11;;;;;;;16.38;10.30;;;1.70;79.90;;;;;;4976575;28;20518;-81
2022/03/07 08:24:38;;;;;;;16.85;10.60;;;1.70;79.20;;;;;;4976392;28;20393;-81
2022/03/07 08:27:05;;;;;;;17.02;10.38;;;1.70;78.10;;;;;;4976394;28;20125;-80
2022/03/07 08:29:32;;;;;;;15.77;10.20;;;1.70;77.00;;;;;;4976395;28;20046;-79
2022/03/07 08:32:01;;;;;;;14.43;9.70;;;1.70;76.90;;;;;;4976256;28;20497;-81
2022/03/07 08:34:28;;;;;;;14.50;9.55;;;1.70;76.90;;;;;;4976336;28;20138;-81
2022/03/07 08:36:55;;;;;;;15.68;9.93;;;1.70;77.00;;;;;;4976553;28;20061;-81
2022/03/07 08:39:22;;;;;;;15.20;9.68;;;1.70;76.70;;;;;;4976447;28;20050;-81
2022/03/07 08:41:49;;;;;;;15.55;10.23;;;1.70;76.30;;;;;;4976394;28;20399;-80
2022/03/07 08:44:16;;;;;;;16.85;9.80;;;1.80;75.90;;;;;;4976156;28;20057;-80
2022/03/07 08:46:44;;;;;;;15.82;10.65;;;1.80;75.70;;;;;;4976163;28;20062;-80
2022/03/07 08:49:12;;;;;;;16.00;10.65;;;1.80;75.40;;;;;;4976287;28;20078;-80
2022/03/07 08:51:41;;;;;;;15.35;10.40;;;1.80;75.30;;;;;;4976046;28;20142;-79
2022/03/07 08:54:08;;;;;;;16.88;10.35;;;1.80;75.50;;;;;;4976134;28;20075;-80
2022/03/07 08:56:35;;;;;;;15.30;10.73;;;1.90;75.40;;;;;;4976066;28;20448;-80
2022/03/07 08:59:05;;;;;;;15.38;10.50;;;1.90;75.30;;;;;;4975918;28;20492;-81
2022/03/07 09:01:32;;;;;;;17.15;10.82;;;1.90;75.90;;;;;;4976113;28;20461;-81
2022/03/07 09:03:59;;;;;;;17.45;10.45;;;1.90;75.50;;;;;;4975899;28;20078;-81
2022/03/07 09:06:28;;;;;;;17.73;10.23;;;2.00;75.20;;;;;;4975632;28;20046;-79
2022/03/07 09:08:55;;;;;;;15.02;9.80;;;2.00;74.10;;;;;;4971213;28;20050;-82
2022/03/07 09:11:22;;;;;;;15.23;9.63;;;2.00;72.70;;;;;;4973715;28;20058;-80
2022/03/07 09:13:49;;;;;;;14.90;9.63;;;2.10;72.80;;;;;;4964608;28;20138;-80
2022/03/07 09:16:16;;;;;;;13.88;9.43;;;2.20;72.30;;;;;;4975603;28;20092;-81
2022/03/07 09:18:43;;;;;;;15.25;10.18;;;2.30;72.20;;;;;;4975423;28;20142;-82
2022/03/07 09:21:11;;;;;;;16.08;9.82;;;2.30;71.60;;;;;;4975497;28;20074;-81
2022/03/07 09:23:40;;;;;;;16.52;10.82;;;2.30;71.20;;;;;;4975356;28;20078;-81
2022/03/07 09:26:09;;;;;;;15.45;10.25;;;2.30;70.70;;;;;;4972377;28;20043;-81
2022/03/07 09:28:36;;;;;;;15.98;9.93;;;2.30;70.80;;;;;;4971689;28;20055;-81
2022/03/07 09:31:03;;;;;;;15.80;9.85;;;2.30;70.80;;;;;;4972743;28;20055;-79
2022/03/07 09:33:31;;;;;;;15.77;10.57;;;2.30;70.90;;;;;;4972387;28;20078;-78
2022/03/07 09:35:58;;;;;;;15.73;10.40;;;2.30;71.00;;;;;;4958662;28;20419;-81
2022/03/07 09:38:26;;;;;;;16.13;10.10;;;2.40;71.30;;;;;;4952617;28;20114;-79
2022/03/07 09:40:56;;;;;;;15.18;10.45;;;2.50;71.50;;;;;;4953251;29;20086;-80
2022/03/07 09:43:23;;;;;;;15.75;9.93;;;2.60;71.20;;;;;;4953665;29;20055;-79
2022/03/07 09:45:51;;;;;;;16.65;10.52;;;2.70;71.00;;;;;;4951305;29;20051;-80
2022/03/07 09:48:18;;;;;;;14.52;10.10;;;2.70;71.00;;;;;;4953394;28;20055;-81
2022/03/07 09:50:45;;;;;;;15.43;9.40;;;2.80;70.80;;;;;;4953318;28;20062;-80
2022/03/07 09:53:16;;;;;;;16.45;9.90;;;2.90;71.20;;;;;;4953104;29;20837;-80
2022/03/07 09:55:43;;;;;;;14.05;9.93;;;2.90;70.50;;;;;;4953389;29;20051;-80
2022/03/07 09:58:13;;;;;;;16.00;9.77;;;3.00;70.30;;;;;;4953466;29;20185;-78
2022/03/07 10:00:41;;;;;;;14.52;9.40;;;3.10;70.70;;;;;;4954232;28;20051;-80
2022/03/07 10:03:11;;;;;;;13.82;9.63;;;3.10;70.40;;;;;;4953235;29;20157;-79
2022/03/07 10:05:43;;;;;;;15.23;10.10;;;3.30;70.30;;;;;;4952935;29;20074;-80
2022/03/07 10:08:12;;;;;;;14.95;9.88;;;3.30;70.00;;;;;;4953025;29;20047;-79
2022/03/07 10:10:42;;;;;;;16.02;10.23;;;3.40;69.30;;;;;;4951469;29;20487;-80
2022/03/07 10:13:13;;;;;;;17.33;10.05;;;3.50;68.90;;;;;;4953350;28;20133;-78
2022/03/07 10:15:42;;;;;;;14.00;9.60;;;3.60;68.80;;;;;;4952768;28;20051;-79
2022/03/07 10:18:16;;;;;;;15.55;9.93;;;3.70;69.20;;;;;;4952946;29;20134;-78
2022/03/07 10:20:50;;;;;;;12.88;8.88;;;3.80;67.80;;;;;;4952358;29;20061;-79
2022/03/07 10:23:17;;;;;;;15.05;9.68;;;3.80;67.60;;;;;;4952495;29;20051;-80
2022/03/07 10:25:45;;;;;;;14.65;9.05;;;3.90;67.50;;;;;;4952564;29;20471;-80
2022/03/07 10:28:14;;;;;;;13.70;9.10;;;3.90;66.40;;;;;;4952483;29;20473;-79
2022/03/07 10:30:42;;;;;;;14.15;9.32;;;4.00;65.40;;;;;;4952543;29;20051;-80
2022/03/07 10:33:12;;;;;;;14.93;9.57;;;4.00;64.90;;;;;;4953529;28;20572;-77
2022/03/07 10:35:42;;;;;;;13.73;9.02;;;4.10;64.40;;;;;;4952361;29;20047;-80
2022/03/07 10:38:13;;;;;;;15.05;9.57;;;4.20;64.50;;;;;;4952113;29;20134;-79
2022/03/07 10:40:43;;;;;;;13.35;9.18;;;4.20;64.20;;;;;;4952473;29;20062;-79
2022/03/07 10:43:12;;;;;;;13.10;8.70;;;4.30;63.00;;;;;;4952231;29;20057;-79
2022/03/07 10:45:48;;;;;;;12.50;8.43;;;4.30;62.30;;;;;;4950329;29;20145;-79
2022/03/07 10:48:17;;;;;;;13.75;8.38;;;4.40;62.60;;;;;;4952267;29;20063;-77
2022/03/07 10:50:49;;;;;;;13.30;9.18;;;4.50;61.70;;;;;;4952570;28;20138;-78
2022/03/07 10:53:16;;;;;;;13.55;9.35;;;4.50;60.70;;;;;;4955970;29;20138;-79
2022/03/07 10:55:52;;;;;;;12.98;8.50;;;4.60;59.80;;;;;;4956163;29;20467;-79
2022/03/07 10:58:20;;;;;;;13.70;8.85;;;4.60;59.70;;;;;;4973737;28;20491;-77
2022/03/07 11:00:50;;;;;;;12.88;8.70;;;4.60;59.30;;;;;;4975128;28;20079;-79
2022/03/07 11:03:20;;;;;;;13.93;8.93;;;4.60;59.00;;;;;;4974733;28;20055;-79
2022/03/07 11:05:48;;;;;;;13.93;8.65;;;4.70;58.50;;;;;;4974956;28;20086;-79
2022/03/07 11:08:16;;;;;;;12.35;8.50;;;4.60;58.20;;;;;;4974389;28;20090;-79
2022/03/07 11:10:48;;;;;;;12.95;9.05;;;4.70;58.30;;;;;;4974711;28;20527;-79
2022/03/07 11:13:20;;;;;;;13.95;9.23;;;4.70;58.00;;;;;;4975008;28;20134;-79
2022/03/07 11:15:51;;;;;;;13.65;9.38;;;4.80;57.50;;;;;;4974572;28;20476;-79
2022/03/07 11:18:21;;;;;;;13.27;9.10;;;4.80;57.30;;;;;;4974793;28;20454;-78
2022/03/07 11:20:48;;;;;;;12.93;9.18;;;4.80;57.30;;;;;;4974204;28;20082;-78
2022/03/07 11:23:17;;;;;;;17.08;10.68;;;4.80;56.70;;;;;;4975024;28;20055;-78
2022/03/07 11:25:45;;;;;;;13.43;9.05;;;4.80;56.50;;;;;;4962166;28;20047;-79
2022/03/07 11:28:13;;;;;;;13.63;9.20;;;4.80;56.10;;;;;;4954823;29;20055;-78
2022/03/07 11:30:43;;;;;;;13.40;9.35;;;4.90;55.90;;;;;;4955253;29;20051;-78
2022/03/07 11:33:13;;;;;;;14.25;9.27;;;4.90;55.90;;;;;;4954954;29;20073;-77
2022/03/07 11:35:46;;;;;;;13.07;9.20;;;4.90;55.80;;;;;;4955329;29;20058;-78
2022/03/07 11:38:16;;;;;;;13.27;8.77;;;4.90;55.50;;;;;;4955229;29;20430;-78
2022/03/07 11:40:57;;;;;;;11.50;8.43;;;5.00;56.00;;;;;;4955277;29;20047;-78
2022/03/07 11:43:25;;;;;;;13.25;9.13;;;5.10;55.20;;;;;;4955133;29;20412;-77
2022/03/07 11:45:54;;;;;;;13.00;8.82;;;5.20;54.50;;;;;;4953268;29;20051;-78
2022/03/07 11:48:23;;;;;;;13.63;9.35;;;5.40;54.50;;;;;;4954220;29;20462;-78
2022/03/07 11:50:50;;;;;;;13.20;8.57;;;5.40;53.90;;;;;;4971101;28;20141;-80
2022/03/07 11:53:19;;;;;;;13.73;8.57;;;5.50;53.70;;;;;;4955394;28;20390;-79
2022/03/07 11:55:49;;;;;;;13.20;9.13;;;5.60;53.70;;;;;;4954780;29;20051;-81
2022/03/07 11:58:29;;;;;;;13.20;8.55;;;5.70;53.10;;;;;;4954576;29;20083;-79
2022/03/07 12:01:07;;;;;;;14.20;9.30;;;5.90;53.50;;;;;;4954949;29;20066;-80
2022/03/07 12:03:39;;;;;;;15.50;9.93;;;6.00;52.30;;;;;;4954064;29;20047;-81
2022/03/07 12:06:09;;;;;;;12.38;8.57;;;6.00;51.70;;;;;;4955142;29;20571;-81
2022/03/07 12:08:48;;;;;;;12.93;8.73;;;6.00;51.80;;;;;;4954767;29;20536;-80
2022/03/07 12:11:27;;;;;;;13.50;9.40;;;6.10;51.80;;;;;;4954970;29;20509;-81
2022/03/07 12:14:02;;;;;;;12.75;8.68;;;6.10;51.60;;;;;;4954605;29;20496;-81
2022/03/07 12:16:31;;;;;;;;;;;6.10;51.40;;;;;;4955412;29;20051;-80
2022/03/07 12:19:09;;;;;;;13.55;9.38;;;6.20;51.20;;;;;;4954087;29;20282;-80
2022/03/07 12:21:41;;;;;;;12.60;8.85;;;6.30;50.50;;;;;;4935731;29;20076;-82
2022/03/07 12:24:10;;;;;;;12.07;8.40;;;6.40;50.30;;;;;;4935584;29;20063;-82
2022/03/07 12:26:46;;;;;;;12.85;8.32;;;6.50;50.60;;;;;;4935217;29;20469;-79
2022/03/07 12:29:13;;;;;;;13.65;9.55;;;6.60;50.10;;;;;;4935398;29;20059;-80
2022/03/07 12:31:52;;;;;;;13.48;9.48;;;6.80;49.20;;;;;;4934984;29;20059;-80
2022/03/07 12:34:23;;;;;;;12.68;9.63;;;6.90;48.90;;;;;;4935211;29;20052;-80
2022/03/07 12:37:02;;;;;;;11.57;8.77;;;7.10;48.40;;;;;;4935393;29;20454;-79
2022/03/07 12:39:32;;;;;;;11.32;8.60;;;7.20;48.70;;;;;;4934856;29;20054;-80
2022/03/07 12:42:01;;;;;;;11.57;8.65;;;7.40;48.80;;;;;;4935129;29;20076;-81
2022/03/07 12:44:29;;;;;;;14.35;9.25;;;7.50;47.90;;;;;;4933360;29;20054;-82
2022/03/07 12:46:56;;;;;;;13.35;8.93;;;7.60;47.30;;;;;;4937302;29;20138;-81
2022/03/07 12:49:24;;;;;;;11.52;8.43;;;7.70;46.30;;;;;;4953959;29;20059;-80
2022/03/07 12:51:52;;;;;;;11.68;8.60;;;7.80;46.90;;;;;;4961761;28;20069;-81
2022/03/07 12:54:29;;;;;;;11.05;7.43;;;7.80;47.10;;;;;;4973491;28;20412;-79
2022/03/07 12:56:56;;;;;;;11.65;7.95;;;7.90;50.20;;;;;;4973990;28;20055;-78
2022/03/07 12:59:26;;;;;;;12.25;9.15;;;8.20;50.70;;;;;;4973163;28;20074;-80
2022/03/07 13:01:53;;;;;;;12.13;8.75;;;8.50;49.20;;;;;;4973321;28;20047;-76
2022/03/07 13:04:25;;;;;;;13.50;9.23;;;;;;;;;;4972868;28;20069;-76
2022/03/07 13:06:53;;;;;;;11.50;8.15;;;;;;;;;;4973206;28;20530;-76
2022/03/07 13:09:27;;;;;;;10.40;7.60;;;;;;;;;;4972739;28;20061;-72
2022/03/07 13:11:54;;;;;;;15.95;10.00;;;;;;;;;;4972990;28;20061;-76
2022/03/07 13:14:24;;;;;;;12.98;9.18;;;;;;;;;;4972061;28;20477;-77
2022/03/07 13:16:52;;;;;;;16.45;9.07;;;;;;;;;;4971675;28;20460;-78
2022/03/07 13:19:21;;;;;;;12.25;8.50;;;;;;;;;;4972853;28;20050;-78
2022/03/07 13:21:54;;;;;;;13.23;8.63;;;;;;;;;;4972561;28;20491;-77
2022/03/07 13:24:24;;;;;;;11.13;7.93;;;10.00;76.20;;;;;;4971759;28;20061;-79
2022/03/07 13:27:01;;;;;;;13.50;9.10;;;;;;;;;;4972780;28;20057;-78
2022/03/07 13:29:35;;;;;;;10.48;8.00;;;;;;;;;;4972811;28;20047;-77
2022/03/07 13:32:07;;;;;;;14.30;8.80;;;;;;;;;;4972788;28;20057;-76
2022/03/07 13:34:50;;;;;;;11.90;8.48;;;;;;;;;;4972640;28;20050;-78
2022/03/07 13:37:24;;;;;;;10.65;8.15;;;;;;;;;;4972806;28;20061;-76
2022/03/07 13:40:00;;;;;;;11.50;7.93;;;;;;;;;;4972328;28;20110;-75
2022/03/07 13:42:27;;;;;;;12.10;8.45;;;;;;;;;;4972314;28;20046;-78
2022/03/07 13:44:57;;;;;;;11.65;8.88;;;;;;;;;;4953374;28;20122;-74
2022/03/07 13:47:26;;;;;;;12.75;9.20;;;;;;;;;;4953249;29;20405;-77
2022/03/07 13:49:55;;;;;;;10.85;8.40;;;;;;;;;;4952577;29;20402;-74
2022/03/07 13:52:28;;;;;;;11.00;8.15;;;;;;;;;;4952569;28;20556;-77
2022/03/07 13:54:56;;;;;;;10.68;8.43;;;;;;;;;;4952848;29;20477;-75
2022/03/07 13:57:31;;;;;;;10.43;8.27;;;11.70;42.00;;;;;;4952975;29;20051;-75
2022/03/07 14:00:04;;;;;;;10.00;8.02;;;11.80;42.50;;;;;;4952806;29;20134;-78
2022/03/07 14:02:32;;;;;;;10.45;8.13;;;12.00;41.90;;;;;;4952560;29;20540;-78
2022/03/07 14:05:02;;;;;;;10.52;8.02;;;12.10;41.60;;;;;;4952758;29;20059;-78
2022/03/07 14:07:32;;;;;;;10.88;8.30;;;12.40;41.10;;;;;;4952706;29;20139;-79
2022/03/07 14:10:04;;;;;;;11.07;8.38;;;12.70;41.10;;;;;;4953107;29;20051;-79
2022/03/07 14:12:34;;;;;;;10.13;8.25;;;13.10;60.10;;;;;;4952571;29;20051;-77
2022/03/07 14:15:05;;;;;;;11.73;8.45;;;13.40;39.60;;;;;;4952500;29;20051;-77
2022/03/07 14:17:33;;;;;;;9.90;7.63;;;15.20;36.70;;;;;;4952835;29;20074;-77
2022/03/07 14:20:02;;;;;;;9.98;7.70;;;15.90;36.90;;;;;;4952218;29;20051;-78
2022/03/07 14:22:30;;;;;;;12.35;9.20;;;18.50;34.70;;;;;;4953091;29;20101;-78
2022/03/07 14:24:59;;;;;;;10.23;7.93;;;21.00;32.00;;;;;;4952504;28;20057;-79
2022/03/07 14:27:31;;;;;;;9.07;7.40;;;25.30;28.30;;;;;;4952457;29;20047;-80
2022/03/07 14:30:01;;;;;;;9.63;7.38;;;25.30;28.50;;;;;;4952613;29;20047;-78
2022/03/07 14:32:29;;;;;;;9.25;7.30;;;;;;;;;;4952297;29;20071;-78
2022/03/07 14:34:56;;;;;;;8.02;6.57;;;28.80;26.30;;;;;;4952780;29;20058;-79
2022/03/07 14:37:26;;;;;;;7.93;7.13;;;30.00;26.40;;;;;;4952935;29;20467;-80
2022/03/07 14:39:57;;;;;;;7.43;6.38;;;30.50;25.50;;;;;;4952778;29;20065;-79
2022/03/07 14:42:26;;;;;;;8.32;6.50;;;30.90;25.30;;;;;;4952381;29;20054;-80
2022/03/07 14:44:55;;;;;;;8.07;6.38;;;31.50;25.00;;;;;;4950476;29;20051;-79
2022/03/07 14:47:22;;;;;;;7.28;6.30;;;31.90;24.80;;;;;;4952250;29;20054;-79
2022/03/07 14:49:50;;;;;;;8.05;6.78;;;32.40;24.70;;;;;;4952657;29;20055;-80
2022/03/07 14:52:20;;;;;;;7.28;6.32;;;32.80;24.10;;;;;;4951944;29;20137;-78
2022/03/07 14:54:49;;;;;;;7.70;6.85;;;33.10;24.00;;;;;;4952131;29;20051;-78
2022/03/07 14:57:20;;;;;;;8.05;6.63;;;33.40;23.80;;;;;;4952068;29;20572;-78
2022/03/07 14:59:48;;;;;;;8.40;6.75;;;33.80;23.70;;;;;;4952058;29;20079;-78
2022/03/07 15:02:17;;;;;;;8.13;6.50;;;33.90;23.00;;;;;;4951791;29;20051;-81
2022/03/07 15:04:44;;;;;;;8.18;6.70;;;33.60;23.30;;;;;;4952214;29;20126;-79
2022/03/07 15:07:12;;;;;;;8.10;7.28;;;33.50;23.40;;;;;;4952169;29;20086;-77
2022/03/07 15:09:39;;;;;;;7.82;6.22;;;33.20;23.30;;;;;;4952076;29;20051;-79
2022/03/07 15:12:08;;;;;;;8.88;6.90;;;33.20;23.30;;;;;;4951995;29;20063;-79
2022/03/07 15:14:37;;;;;;;7.82;7.03;;;33.20;23.10;;;;;;4951771;29;20158;-79
2022/03/07 15:17:04;;;;;;;8.05;6.47;;;33.30;23.00;;;;;;4951964;29;20569;-79
2022/03/07 15:19:31;;;;;;;8.88;7.05;;;33.50;23.00;;;;;;4951929;29;20055;-78
2022/03/07 15:21:58;;;;;;;8.93;7.70;;;33.40;22.80;;;;;;4952192;29;20058;-76
2022/03/07 15:24:27;;;;;;;7.70;6.90;;;33.20;22.60;;;;;;4951940;29;20053;-79
2022/03/07 15:26:54;;;;;;;9.23;7.00;;;33.00;22.90;;;;;;4951755;29;20528;-79
2022/03/07 15:29:22;;;;;;;8.25;7.18;;;33.10;23.00;;;;;;4952100;29;20063;-79
2022/03/07 15:31:51;;;;;;;7.30;6.50;;;33.00;22.80;;;;;;4951646;29;20047;-79
2022/03/07 15:34:18;;;;;;;7.55;6.75;;;33.00;22.90;;;;;;4951894;29;20059;-78
2022/03/07 15:36:46;;;;;;;9.02;7.35;;;32.90;22.90;;;;;;4952488;28;20134;-79
2022/03/07 15:39:15;;;;;;;7.63;6.82;;;32.80;23.00;;;;;;4955155;29;20499;-79
2022/03/07 15:41:44;;;;;;;8.27;7.30;;;32.70;22.80;;;;;;4955560;29;20055;-80
2022/03/07 15:44:13;;;;;;;8.18;7.25;;;32.50;23.00;;;;;;4952897;29;20142;-78
2022/03/07 15:46:41;;;;;;;8.10;7.30;;;32.40;22.90;;;;;;4955410;29;20062;-78
2022/03/07 15:49:09;;;;;;;8.38;7.07;;;32.30;22.90;;;;;;4955386;29;20134;-79
2022/03/07 15:51:37;;;;;;;8.35;7.50;;;31.80;22.60;;;;;;4955019;29;20386;-79
2022/03/07 15:54:06;;;;;;;7.63;6.82;;;31.00;22.50;;;;;;4954383;29;20061;-83
2022/03/07 15:56:36;;;;;;;8.63;7.72;;;30.20;22.80;;;;;;4955274;29;20059;-85
2022/03/07 15:59:06;;;;;;;8.90;7.78;;;29.70;22.90;;;;;;4955464;29;20047;-83
2022/03/07 16:01:34;;;;;;;10.80;8.48;;;29.60;48.10;;;;;;4954817;29;20058;-83
2022/03/07 16:04:01;;;;;;;8.70;7.75;;;28.60;34.50;;;;;;4954613;29;20058;-83
2022/03/07 16:06:29;;;;;;;10.13;8.30;;;28.20;23.40;;;;;;4954878;29;20130;-83
2022/03/07 16:08:56;;;;;;;8.90;8.00;;;28.10;23.30;;;;;;4955154;29;20051;-84
2022/03/07 16:11:23;;;;;;;9.95;8.50;;;28.10;23.50;;;;;;4954726;29;20055;-83
2022/03/07 16:13:50;;;;;;;9.77;8.70;;;28.00;23.50;;;;;;4954578;29;20058;-82
2022/03/07 16:16:19;;;;;;;9.65;8.63;;;27.80;23.40;;;;;;4954418;29;20481;-82
2022/03/07 16:18:46;;;;;;;9.43;8.43;;;27.30;23.40;;;;;;4954575;29;20135;-81
2022/03/07 16:21:13;;;;;;;10.00;8.70;;;26.60;23.60;;;;;;4954765;29;20504;-82
2022/03/07 16:23:42;;;;;;;9.38;8.25;;;25.80;23.70;;;;;;4954560;29;20059;-82
2022/03/07 16:26:10;;;;;;;10.15;9.02;;;24.80;23.80;;;;;;4954569;29;20051;-82
2022/03/07 16:28:37;;;;;;;11.43;8.68;;;24.30;24.70;;;;;;4954521;29;20051;-83
2022/03/07 16:31:04;;;;;;;9.95;8.73;;;23.80;24.50;;;;;;4953837;29;20134;-81
2022/03/07 16:33:31;;;;;;;9.35;8.38;;;23.30;24.60;;;;;;4954761;29;20147;-81
2022/03/07 16:35:58;;;;;;;9.48;8.20;;;23.00;24.80;;;;;;4952883;29;20497;-82
2022/03/07 16:38:26;;;;;;;9.57;8.57;;;22.80;24.90;;;;;;4937870;29;20051;-80
2022/03/07 16:40:54;;;;;;;10.93;9.48;;;22.50;25.00;;;;;;4953911;29;20051;-81
2022/03/07 16:43:21;;;;;;;11.65;9.23;;;22.20;25.30;;;;;;4954667;29;20047;-82
2022/03/07 16:45:48;;;;;;;11.48;9.30;;;21.50;25.40;;;;;;4952268;29;20404;-82
2022/03/07 16:48:16;;;;;;;11.07;9.30;;;20.80;25.60;;;;;;4937324;29;20098;-82
2022/03/07 16:50:45;;;;;;;10.75;9.63;;;20.10;25.90;;;;;;4934933;29;20162;-83
2022/03/07 16:53:12;;;;;;;11.07;9.80;;;19.40;26.40;;;;;;4934588;29;20151;-81
2022/03/07 16:55:43;;;;;;;12.30;10.10;;;18.70;26.80;;;;;;4935098;29;20106;-84
2022/03/07 16:58:12;;;;;;;11.38;10.18;;;18.10;27.10;;;;;;4938674;29;20047;-81
2022/03/07 17:00:39;;;;;;;13.48;10.57;;;17.40;27.60;;;;;;4947267;29;20094;-82
2022/03/07 17:03:07;;;;;;;12.73;11.07;;;;;;;;;;4953969;29;20073;-82
2022/03/07 17:05:35;;;;;;;12.65;10.85;;;15.90;28.00;;;;;;4954146;29;20066;-83
2022/03/07 17:08:02;;;;;;;11.98;10.55;;;15.30;28.90;;;;;;4953970;29;20055;-82
2022/03/07 17:10:30;;;;;;;13.50;10.85;;;14.50;29.30;;;;;;4953679;29;20141;-84
2022/03/07 17:12:57;;;;;;;13.57;10.88;;;13.50;29.70;;;;;;4936539;29;20055;-81
2022/03/07 17:15:26;;;;;;;15.60;11.10;;;12.70;30.30;;;;;;4945136;29;20122;-86
2022/03/07 17:17:53;;;;;;;14.73;11.40;;;12.00;31.30;;;;;;4943196;28;20086;-82
2022/03/07 17:20:20;;;;;;;15.57;11.48;;;11.40;32.10;;;;;;4966121;28;20050;-81
2022/03/07 17:22:47;;;;;;;14.65;11.30;;;10.80;32.70;;;;;;4969401;28;20047;-85
2022/03/07 17:25:15;;;;;;;15.32;11.60;;;10.20;33.60;;;;;;4955099;28;20070;-82
2022/03/07 17:27:43;;;;;;;16.48;11.52;;;9.70;34.30;;;;;;4952716;28;20110;-80
2022/03/07 17:30:13;;;;;;;15.93;11.70;;;9.30;35.10;;;;;;4952611;29;20540;-81
2022/03/07 17:32:41;;;;;;;14.77;11.07;;;8.90;35.70;;;;;;4956853;28;20502;-83
2022/03/07 17:35:11;;;;;;;16.00;11.50;;;8.60;36.10;;;;;;4952019;28;20051;-83
2022/03/07 17:37:38;;;;;;;15.18;11.63;;;8.30;36.80;;;;;;4952268;29;20055;-81
2022/03/07 17:40:08;;;;;;;17.08;11.77;;;7.90;37.10;;;;;;4955963;28;20058;-81
2022/03/07 17:42:35;;;;;;;15.93;10.90;;;7.60;37.50;;;;;;4953176;29;20092;-79
2022/03/07 17:45:04;;;;;;;14.52;10.57;;;7.40;38.00;;;;;;4956992;28;20068;-80